createdAt,value
2023-04-18T00:01:24.712Z,6.53
2023-04-18T00:04:26.017Z,7.28
2023-04-18T00:07:24.513Z,6.75
2023-04-18T00:10:25.896Z,6.57
2023-04-18T00:14:03.563Z,7.07
2023-04-18T00:17:13.895Z,7.05
2023-04-18T00:20:10.127Z,6.90
2023-04-18T00:23:08.349Z,6.20
2023-04-18T00:26:08.726Z,6.30
2023-04-18T00:29:32.101Z,6.40
2023-04-18T00:32:52.801Z,6.00
2023-04-18T00:35:56.272Z,6.03
2023-04-18T00:38:50.511Z,6.47
2023-04-18T00:41:47.743Z,6.50
2023-04-18T00:44:40.043Z,5.93
2023-04-18T00:47:38.569Z,6.47
2023-04-18T00:50:42.418Z,5.88
2023-04-18T00:53:39.695Z,6.00
2023-04-18T00:56:54.559Z,5.75
2023-04-18T00:59:48.328Z,5.97
2023-04-18T01:02:53.544Z,5.72
2023-04-18T01:05:55.762Z,6.20
2023-04-18T01:09:19.429Z,6.10
2023-04-18T01:12:28.511Z,6.45
2023-04-18T01:15:39.486Z,6.15
2023-04-18T01:18:57.934Z,6.05
2023-04-18T01:22:05.130Z,6.78
2023-04-18T01:25:13.053Z,5.85
2023-04-18T01:28:18.112Z,6.95
2023-04-18T01:31:07.368Z,5.72
2023-04-18T01:34:01.282Z,6.25
2023-04-18T01:37:19.232Z,5.95
2023-04-18T01:40:35.053Z,6.03
2023-04-18T01:43:25.604Z,5.70
2023-04-18T01:46:25.431Z,6.13
2023-04-18T01:49:31.960Z,5.60
2023-04-18T01:52:29.485Z,5.72
2023-04-18T01:55:38.535Z,6.13
2023-04-18T01:58:36.780Z,6.50
2023-04-18T02:05:15.647Z,5.80
2023-04-18T02:08:11.099Z,6.75
2023-04-18T02:11:22.920Z,6.05
2023-04-18T02:14:44.160Z,6.50
2023-04-18T02:17:42.910Z,6.05
2023-04-18T02:20:44.176Z,6.30
2023-04-18T02:23:46.898Z,6.90
2023-04-18T02:26:57.875Z,6.60
2023-04-18T02:29:59.973Z,6.70
2023-04-18T02:33:05.266Z,6.20
2023-04-18T02:36:16.857Z,6.75
2023-04-18T02:39:20.456Z,6.45
2023-04-18T02:42:33.374Z,6.47
2023-04-18T02:45:37.806Z,5.40
2023-04-18T02:48:47.496Z,5.57
2023-04-18T02:51:42.135Z,6.03
2023-04-18T02:55:02.455Z,6.50
2023-04-18T02:57:57.256Z,5.63
2023-04-18T03:00:50.232Z,6.10
2023-04-18T03:03:51.146Z,6.25
2023-04-18T03:07:03.543Z,5.78
2023-04-18T03:13:31.041Z,5.90
2023-04-18T03:16:31.992Z,5.85
2023-04-18T03:19:49.183Z,6.78
2023-04-18T03:23:08.973Z,6.95
2023-04-18T03:26:07.316Z,6.72
2023-04-18T03:29:13.645Z,5.85
2023-04-18T03:32:14.261Z,6.57
2023-04-18T03:35:29.720Z,6.32
2023-04-18T03:38:26.582Z,6.13
2023-04-18T03:41:28.032Z,6.28
2023-04-18T03:48:04.384Z,6.07
2023-04-18T03:51:21.988Z,6.10
2023-04-18T03:54:26.417Z,6.60
2023-04-18T03:57:24.296Z,6.30
2023-04-18T04:00:31.693Z,6.57
2023-04-18T04:03:28.258Z,6.45
2023-04-18T04:06:47.503Z,6.32
2023-04-18T04:10:26.141Z,6.10
2023-04-18T04:13:32.700Z,6.00
2023-04-18T04:16:40.381Z,6.60
2023-04-18T04:19:37.128Z,6.50
2023-04-18T04:22:33.278Z,6.13
2023-04-18T04:25:39.686Z,6.07
2023-04-18T04:28:36.258Z,6.55
2023-04-18T04:31:48.191Z,5.93
2023-04-18T04:34:43.730Z,7.13
2023-04-18T04:37:53.654Z,5.60
2023-04-18T04:41:17.529Z,7.05
2023-04-18T04:44:29.933Z,5.50
2023-04-18T04:47:37.925Z,6.73
2023-04-18T04:50:44.897Z,7.03
2023-04-18T04:53:43.145Z,7.57
2023-04-18T04:56:57.764Z,6.38
2023-04-18T04:59:55.971Z,6.57
2023-04-18T05:03:03.994Z,7.55
2023-04-18T05:06:01.397Z,6.75
2023-04-18T05:09:01.866Z,6.65
2023-04-18T05:12:02.057Z,6.13
2023-04-18T05:15:02.325Z,6.43
2023-04-18T05:18:06.516Z,6.82
2023-04-18T05:21:00.219Z,6.28
2023-04-18T05:24:06.347Z,7.43
2023-04-18T05:27:03.013Z,6.70
2023-04-18T05:30:03.022Z,6.97
2023-04-18T05:32:56.823Z,6.80
2023-04-18T05:35:46.347Z,8.27
2023-04-18T05:38:53.860Z,7.32
2023-04-18T05:41:47.679Z,7.47
2023-04-18T05:44:46.676Z,7.57
2023-04-18T05:48:13.207Z,7.13
2023-04-18T05:52:13.404Z,7.38
2023-04-18T05:59:04.292Z,7.90
2023-04-18T06:02:30.018Z,8.45
2023-04-18T06:05:25.685Z,8.70
2023-04-18T06:08:50.875Z,8.50
2023-04-18T06:11:53.507Z,7.35
2023-04-18T06:14:56.887Z,8.65
2023-04-18T06:18:03.718Z,7.38
2023-04-18T06:21:13.004Z,7.00
2023-04-18T06:24:09.548Z,8.07
2023-04-18T06:27:24.214Z,6.72
2023-04-18T06:30:26.352Z,7.45
2023-04-18T06:33:50.861Z,7.05
2023-04-18T06:36:49.577Z,8.00
2023-04-18T06:40:07.453Z,8.43
2023-04-18T06:43:14.780Z,7.95
2023-04-18T06:46:21.700Z,8.05
2023-04-18T06:49:26.380Z,7.95
2023-04-18T06:52:20.003Z,8.23
2023-04-18T06:58:27.031Z,7.97
2023-04-18T07:01:21.147Z,8.68
2023-04-18T07:04:15.531Z,8.85
2023-04-18T07:07:09.965Z,10.25
2023-04-18T07:10:21.722Z,7.97
2023-04-18T07:13:21.774Z,7.30
2023-04-18T07:16:30.860Z,7.60
2023-04-18T07:19:29.025Z,7.13
2023-04-18T07:22:27.359Z,7.10
2023-04-18T07:25:44.401Z,7.47
2023-04-18T07:28:40.006Z,7.88
2023-04-18T07:32:11.366Z,8.68
2023-04-18T07:35:22.212Z,8.88
2023-04-18T07:38:23.354Z,7.30
2023-04-18T07:41:36.434Z,7.47
2023-04-18T07:44:56.618Z,6.40
2023-04-18T07:48:04.547Z,6.45
2023-04-18T07:51:12.548Z,6.93
2023-04-18T07:54:12.862Z,7.65
2023-04-18T07:57:20.389Z,6.78
2023-04-18T08:00:37.550Z,8.00
2023-04-18T08:04:04.483Z,10.80
2023-04-18T08:07:13.084Z,11.60
2023-04-18T08:10:17.910Z,9.02
2023-04-18T08:13:27.241Z,8.63
2023-04-18T08:19:57.814Z,6.65
2023-04-18T08:23:07.338Z,6.15
2023-04-18T08:26:15.323Z,7.20
2023-04-18T08:29:23.839Z,7.93
2023-04-18T08:35:51.869Z,7.95
2023-04-18T08:38:50.420Z,9.60
2023-04-18T08:42:20.830Z,7.50
2023-04-18T08:45:31.297Z,6.72
2023-04-18T08:48:57.323Z,8.50
2023-04-18T08:52:04.597Z,7.00
2023-04-18T08:55:09.971Z,7.82
2023-04-18T08:58:10.017Z,7.45
2023-04-18T09:01:37.408Z,7.97
2023-04-18T09:04:49.148Z,6.32
2023-04-18T09:07:44.238Z,5.97
2023-04-18T09:10:46.721Z,6.40
2023-04-18T09:13:53.794Z,5.75
2023-04-18T09:16:56.387Z,5.40
2023-04-18T09:19:56.235Z,6.03
2023-04-18T09:23:01.508Z,5.82
2023-04-18T09:26:01.774Z,6.47
2023-04-18T09:29:09.240Z,6.30
2023-04-18T09:32:21.011Z,5.65
2023-04-18T09:35:33.949Z,5.40
2023-04-18T09:38:41.270Z,5.25
2023-04-18T09:41:32.990Z,5.13
2023-04-18T09:44:31.594Z,4.80
2023-04-18T09:47:24.765Z,5.70
2023-04-18T09:50:26.721Z,5.28
2023-04-18T09:53:39.647Z,4.38
2023-04-18T09:56:46.759Z,4.85
2023-04-18T10:00:03.129Z,4.47
2023-04-18T10:03:27.523Z,5.72
2023-04-18T10:06:47.608Z,7.50
2023-04-18T10:13:00.364Z,7.05
2023-04-18T10:16:00.385Z,4.63
2023-04-18T10:18:53.107Z,4.75
2023-04-18T10:22:02.635Z,4.00
2023-04-18T10:25:07.219Z,4.35
2023-04-18T10:28:32.767Z,3.90
2023-04-18T10:31:45.650Z,4.55
2023-04-18T10:34:47.068Z,4.18
2023-04-18T10:38:08.968Z,4.30
2023-04-18T10:41:35.075Z,3.80
2023-04-18T10:45:05.425Z,3.78
2023-04-18T10:48:33.734Z,3.55
2023-04-18T10:51:51.991Z,4.32
2023-04-18T10:55:35.549Z,3.92
2023-04-18T11:11:07.495Z,4.43
2023-04-18T11:14:36.692Z,5.07
2023-04-18T11:18:04.381Z,4.78
2023-04-18T11:21:30.775Z,4.57
2023-04-18T11:24:44.787Z,5.20
2023-04-18T11:31:19.158Z,5.90
2023-04-18T11:37:38.384Z,6.85
2023-04-18T11:40:48.791Z,7.70
2023-04-18T11:47:15.120Z,5.85
2023-04-18T11:50:32.961Z,5.47
2023-04-18T11:57:24.122Z,5.20
2023-04-18T12:00:44.103Z,5.63
2023-04-18T12:04:42.921Z,5.75
2023-04-18T12:08:10.252Z,5.80
2023-04-18T12:11:22.456Z,6.30
2023-04-18T12:18:57.606Z,6.18
2023-04-18T12:22:37.171Z,7.00
2023-04-18T12:25:53.889Z,5.78
2023-04-18T12:29:05.682Z,5.72
2023-04-18T12:32:30.631Z,5.65
2023-04-18T12:35:38.362Z,5.47
2023-04-18T12:39:36.695Z,5.55
2023-04-18T12:42:32.553Z,5.63
2023-04-18T12:45:59.405Z,5.93
2023-04-18T12:49:14.664Z,5.38
2023-04-18T12:55:58.985Z,5.10
2023-04-18T12:58:56.974Z,6.28
2023-04-18T13:06:08.135Z,5.55
2023-04-18T13:09:40.049Z,6.72
2023-04-18T13:13:28.777Z,8.35
2023-04-18T13:16:42.512Z,6.30
2023-04-18T13:20:01.902Z,6.70
2023-04-18T13:23:13.051Z,5.50
2023-04-18T13:26:53.256Z,5.88
2023-04-18T13:30:02.266Z,5.60
2023-04-18T13:33:21.312Z,5.93
2023-04-18T13:36:12.086Z,5.32
2023-04-18T13:39:20.202Z,5.35
2023-04-18T13:42:38.251Z,5.43
2023-04-18T13:45:36.167Z,6.22
2023-04-18T13:48:46.778Z,5.95
2023-04-18T13:51:55.514Z,7.47
2023-04-18T13:55:03.271Z,6.75
2023-04-18T13:58:15.307Z,5.30
2023-04-18T14:01:31.291Z,5.57
2023-04-18T14:04:39.035Z,7.50
2023-04-18T14:08:15.110Z,7.07
2023-04-18T14:11:26.874Z,5.43
2023-04-18T14:14:44.474Z,5.70
2023-04-18T14:17:44.832Z,4.68
2023-04-18T14:21:00.680Z,5.07
2023-04-18T14:23:58.981Z,5.28
2023-04-18T14:27:02.504Z,5.65
2023-04-18T14:30:14.848Z,5.90
2023-04-18T14:33:15.659Z,6.45
2023-04-18T14:36:22.719Z,6.50
2023-04-18T14:39:43.580Z,6.50
2023-04-18T14:42:35.209Z,6.57
2023-04-18T14:52:36.203Z,6.35
2023-04-18T14:55:34.586Z,6.07
2023-04-18T14:58:48.181Z,5.53
2023-04-18T15:01:54.606Z,5.55
2023-04-18T15:04:48.174Z,5.78
2023-04-18T15:07:48.372Z,5.55
2023-04-18T15:14:01.949Z,6.35
2023-04-18T15:17:07.829Z,6.10
2023-04-18T15:19:59.817Z,6.28
2023-04-18T15:23:09.319Z,5.80
2023-04-18T15:26:19.934Z,5.47
2023-04-18T15:33:02.884Z,5.90
2023-04-18T15:36:06.808Z,5.93
2023-04-18T15:39:05.885Z,6.03
2023-04-18T15:42:06.516Z,6.28
2023-04-18T15:45:20.509Z,7.43
2023-04-18T15:48:49.010Z,6.45
2023-04-18T15:52:17.163Z,6.25
2023-04-18T15:59:30.443Z,6.85
2023-04-18T16:02:42.323Z,6.45
2023-04-18T16:10:24.054Z,5.78
2023-04-18T16:13:26.556Z,6.45
2023-04-18T16:16:37.875Z,7.68
2023-04-18T16:19:30.129Z,7.32
2023-04-18T16:22:24.811Z,7.82
2023-04-18T16:25:30.141Z,7.95
2023-04-18T16:28:31.763Z,7.28
2023-04-18T16:31:32.616Z,7.63
2023-04-18T16:35:00.772Z,7.70
2023-04-18T16:38:13.863Z,7.13
2023-04-18T16:41:06.270Z,6.95
2023-04-18T16:43:57.932Z,6.57
2023-04-18T16:46:52.166Z,5.70
2023-04-18T16:49:58.157Z,6.32
2023-04-18T16:52:55.032Z,6.63
2023-04-18T16:55:55.877Z,7.75
2023-04-18T16:58:59.163Z,7.97
2023-04-18T17:01:52.868Z,8.02
2023-04-18T17:04:52.970Z,7.57
2023-04-18T17:07:56.367Z,7.82
2023-04-18T17:14:54.685Z,8.35
2023-04-18T17:17:28.910Z,8.60
2023-04-18T17:20:28.632Z,8.50
2023-04-18T17:23:26.230Z,8.65
2023-04-18T17:26:19.421Z,10.52
2023-04-18T17:29:12.082Z,15.02
2023-04-18T17:32:11.417Z,14.77
2023-04-18T17:35:30.097Z,13.27
2023-04-18T17:38:51.829Z,9.52
2023-04-18T17:41:42.302Z,10.88
2023-04-18T17:44:40.050Z,11.13
2023-04-18T17:47:34.311Z,10.82
2023-04-18T17:50:28.594Z,9.02
2023-04-18T17:53:25.559Z,9.85
2023-04-18T17:56:16.742Z,9.63
2023-04-18T17:59:18.603Z,10.23
2023-04-18T18:02:17.229Z,11.00
2023-04-18T18:05:20.485Z,10.07
2023-04-18T18:08:10.472Z,9.93
2023-04-18T18:11:14.049Z,9.27
2023-04-18T18:14:47.994Z,9.27
2023-04-18T18:18:02.715Z,8.60
2023-04-18T18:21:23.739Z,9.98
2023-04-18T18:24:15.474Z,7.68
2023-04-18T18:27:23.318Z,8.13
2023-04-18T18:30:14.513Z,8.88
2023-04-18T18:33:20.379Z,9.10
2023-04-18T18:36:42.590Z,8.93
2023-04-18T18:42:56.417Z,9.23
2023-04-18T18:49:30.642Z,8.93
2023-04-18T18:56:00.455Z,9.98
2023-04-18T18:59:10.965Z,12.50
2023-04-18T19:02:07.728Z,13.52
2023-04-18T19:04:55.781Z,12.18
2023-04-18T19:07:43.648Z,11.93
2023-04-18T19:10:31.114Z,11.45
2023-04-18T19:13:22.652Z,10.68
2023-04-18T19:16:10.247Z,9.27
2023-04-18T19:18:59.645Z,10.10
2023-04-18T19:21:47.385Z,9.57
2023-04-18T19:24:35.386Z,8.95
2023-04-18T19:27:22.937Z,8.15
2023-04-18T19:30:12.750Z,8.43
2023-04-18T19:33:00.502Z,8.45
2023-04-18T19:35:49.808Z,8.50
2023-04-18T19:38:37.330Z,8.25
2023-04-18T19:41:26.430Z,8.75
2023-04-18T19:44:14.327Z,9.48
2023-04-18T19:47:02.107Z,9.68
2023-04-18T19:49:49.524Z,8.43
2023-04-18T19:52:38.330Z,9.40
2023-04-18T19:55:26.613Z,8.55
2023-04-18T19:58:34.534Z,9.45
2023-04-18T20:01:23.609Z,9.25
2023-04-18T20:04:14.286Z,9.48
2023-04-18T20:07:02.428Z,10.10
2023-04-18T20:09:53.371Z,9.10
2023-04-18T20:12:41.597Z,10.15
2023-04-18T20:15:30.784Z,9.10
2023-04-18T20:18:18.812Z,9.18
2023-04-18T20:21:09.379Z,10.38
2023-04-18T20:23:58.241Z,10.68
2023-04-18T20:26:47.206Z,10.85
2023-04-18T20:29:34.717Z,12.05
2023-04-18T20:32:22.369Z,10.85
2023-04-18T20:35:10.412Z,10.23
2023-04-18T20:38:00.243Z,11.30
2023-04-18T20:40:49.053Z,17.88
2023-04-18T20:43:38.550Z,12.80
2023-04-18T20:46:26.507Z,12.23
2023-04-18T20:49:14.474Z,15.60
2023-04-18T20:52:02.494Z,13.85
2023-04-18T20:54:50.086Z,13.70
2023-04-18T20:57:37.727Z,12.43
2023-04-18T21:00:26.826Z,10.93
2023-04-18T21:03:14.916Z,11.60
2023-04-18T21:06:03.114Z,11.55
2023-04-18T21:08:50.875Z,11.02
2023-04-18T21:11:38.368Z,9.50
2023-04-18T21:14:25.984Z,10.32
2023-04-18T21:17:17.383Z,10.25
2023-04-18T21:20:06.307Z,9.98
2023-04-18T21:22:53.612Z,9.10
2023-04-18T21:25:41.196Z,8.48
2023-04-18T21:28:28.643Z,8.75
2023-04-18T21:31:16.392Z,8.57
2023-04-18T21:34:06.575Z,9.20
2023-04-18T21:36:54.443Z,7.75
2023-04-18T21:39:42.548Z,9.85
2023-04-18T21:42:30.105Z,8.40
2023-04-18T21:45:18.008Z,8.90
2023-04-18T21:48:06.674Z,8.30
2023-04-18T21:50:57.098Z,8.95
2023-04-18T21:53:44.905Z,8.10
2023-04-18T21:56:32.310Z,8.38
2023-04-18T21:59:20.214Z,8.80
2023-04-18T22:02:08.099Z,8.27
2023-04-18T22:04:55.792Z,7.88
2023-04-18T22:07:56.971Z,8.60
2023-04-18T22:10:46.378Z,7.78
2023-04-18T22:13:33.909Z,6.80
2023-04-18T22:16:22.983Z,7.57
2023-04-18T22:19:10.869Z,7.20
2023-04-18T22:21:58.750Z,6.95
2023-04-18T22:24:47.939Z,7.03
2023-04-18T22:27:35.548Z,6.47
2023-04-18T22:30:23.179Z,6.80
2023-04-18T22:33:10.921Z,6.88
2023-04-18T22:35:58.551Z,6.45
2023-04-18T22:38:48.828Z,5.80
2023-04-18T22:41:39.803Z,5.85
2023-04-18T22:44:27.455Z,6.40
2023-04-18T22:47:15.001Z,6.45
2023-04-18T22:50:02.442Z,5.88
2023-04-18T22:52:50.686Z,7.05
2023-04-18T22:55:40.682Z,6.65
2023-04-18T22:58:31.289Z,7.22
2023-04-18T23:01:19.040Z,5.85
2023-04-18T23:04:06.860Z,5.95
2023-04-18T23:06:54.902Z,5.88
2023-04-18T23:09:42.562Z,6.50
2023-04-18T23:12:30.367Z,6.22
2023-04-18T23:15:22.600Z,6.22
2023-04-18T23:18:10.103Z,6.20
2023-04-18T23:20:57.614Z,4.97
2023-04-18T23:23:45.062Z,5.78
2023-04-18T23:26:32.516Z,5.15
2023-04-18T23:29:20.017Z,5.53
2023-04-18T23:32:09.058Z,5.97
2023-04-18T23:34:56.864Z,5.60
2023-04-18T23:37:44.585Z,6.15
2023-04-18T23:40:32.273Z,5.80
2023-04-18T23:43:23.078Z,6.00
2023-04-18T23:46:12.383Z,5.88
2023-04-18T23:49:01.542Z,5.88
2023-04-18T23:51:49.439Z,5.93
2023-04-18T23:54:37.099Z,5.78
2023-04-18T23:57:24.751Z,6.13
